Time;durP1;ratioP1;P1;durP2;ratioP2;P2;SDS_P1;SDS_P2;PMS_P1;PMS_P2;Temp;Humidity;BMP_temperature;BMP_pressure;BME280_temperature;BME280_humidity;BME280_pressure;Samples;Min_cycle;Max_cycle;Signal;HPM_P1;HPM_P2
2022/04/18 00:02:05;;;;;;;4.13;3.83;;;15.30;35.50;;;;;;5095319;28;20554;-72
2022/04/18 00:04:34;;;;;;;4.03;3.63;;;15.30;36.10;;;;;;5095414;28;20479;-72
2022/04/18 00:07:01;;;;;;;3.83;3.37;;;15.30;36.80;;;;;;5094577;28;20451;-72
2022/04/18 00:09:29;;;;;;;6.70;3.70;;;15.20;36.00;;;;;;5094495;28;20454;-72
2022/04/18 00:11:56;;;;;;;6.13;3.20;;;15.20;36.00;;;;;;5093810;28;20841;-72
2022/04/18 00:14:23;;;;;;;4.70;3.27;;;15.10;36.10;;;;;;5094577;28;20444;-72
2022/04/18 00:16:50;;;;;;;3.93;2.87;;;15.10;35.90;;;;;;5094462;28;20452;-72
2022/04/18 00:19:17;;;;;;;5.93;3.13;;;15.10;35.20;;;;;;5094067;28;20854;-71
2022/04/18 00:21:45;;;;;;;3.87;3.33;;;15.00;35.80;;;;;;5094315;28;20467;-72
2022/04/18 00:24:14;;;;;;;4.73;3.07;;;15.00;35.30;;;;;;5094201;28;20933;-72
2022/04/18 00:26:42;;;;;;;7.20;3.73;;;14.90;33.70;;;;;;5094341;28;20547;-72
2022/04/18 00:29:08;;;;;;;3.47;3.17;;;14.90;35.30;;;;;;5094485;28;20587;-72
2022/04/18 00:31:36;;;;;;;4.57;3.07;;;14.80;35.10;;;;;;5094227;28;20468;-72
2022/04/18 00:34:03;;;;;;;3.33;2.70;;;14.80;35.80;;;;;;5094192;28;20463;-72
2022/04/18 00:36:30;;;;;;;2.37;2.10;;;14.80;35.20;;;;;;5094444;28;20455;-71
2022/04/18 00:38:58;;;;;;;4.17;2.67;;;14.70;34.60;;;;;;5094148;28;20455;-72
2022/04/18 00:41:25;;;;;;;6.40;2.70;;;14.70;35.10;;;;;;5094100;28;20475;-71
2022/04/18 00:43:52;;;;;;;3.30;3.00;;;14.70;35.50;;;;;;5093946;28;20486;-71
2022/04/18 00:46:20;;;;;;;3.47;2.60;;;14.60;36.00;;;;;;5093727;28;20448;-71
2022/04/18 00:48:48;;;;;;;5.23;3.13;;;14.60;36.70;;;;;;5093830;28;20443;-71
2022/04/18 00:51:17;;;;;;;3.47;2.50;;;14.50;37.10;;;;;;5094033;28;20494;-71
2022/04/18 00:53:45;;;;;;;5.20;3.07;;;14.50;37.40;;;;;;5093636;28;20940;-71
2022/04/18 00:56:16;;;;;;;5.90;3.40;;;14.50;37.30;;;;;;5093949;28;20439;-71
2022/04/18 00:58:43;;;;;;;2.93;2.27;;;14.50;37.30;;;;;;5093916;28;20428;-71
2022/04/18 01:01:10;;;;;;;3.60;3.17;;;14.50;37.40;;;;;;5093896;28;20472;-71
2022/04/18 01:03:37;;;;;;;5.33;3.10;;;14.40;37.50;;;;;;5093605;28;20824;-71
2022/04/18 01:06:04;;;;;;;6.20;2.77;;;14.40;37.20;;;;;;5093251;28;20966;-71
2022/04/18 01:08:34;;;;;;;3.13;2.80;;;14.40;36.90;;;;;;5093827;28;20947;-71
2022/04/18 01:11:00;;;;;;;3.23;2.53;;;14.40;36.70;;;;;;5093438;28;20483;-71
2022/04/18 01:13:29;;;;;;;3.00;2.57;;;14.40;37.10;;;;;;5093690;28;20496;-71
2022/04/18 01:15:57;;;;;;;3.67;2.90;;;14.40;37.20;;;;;;5093426;28;20942;-72
2022/04/18 01:18:24;;;;;;;3.03;2.73;;;14.40;36.50;;;;;;5093147;28;20951;-71
2022/04/18 01:20:52;;;;;;;3.77;2.33;;;14.40;36.60;;;;;;5093587;28;20472;-71
2022/04/18 01:23:19;;;;;;;3.10;2.47;;;14.40;36.60;;;;;;5093408;28;20490;-71
2022/04/18 01:31:20;;;;;;;3.00;2.70;;;14.30;36.30;;;;;;5082611;28;20455;-71
2022/04/18 01:33:47;;;;;;;3.73;2.87;;;14.30;36.50;;;;;;5093134;28;20946;-71
2022/04/18 01:36:15;;;;;;;2.80;2.60;;;14.20;36.40;;;;;;5093625;28;20443;-71
2022/04/18 01:38:41;;;;;;;3.23;2.73;;;14.20;37.70;;;;;;5093541;28;20439;-72
2022/04/18 01:41:09;;;;;;;3.20;2.90;;;14.20;37.30;;;;;;5093301;28;20467;-72
2022/04/18 01:43:36;;;;;;;4.53;3.27;;;14.10;36.80;;;;;;5092864;28;21025;-72
2022/04/18 01:46:02;;;;;;;3.93;2.47;;;14.10;37.20;;;;;;5093371;28;20452;-72
2022/04/18 01:48:29;;;;;;;4.57;2.67;;;14.00;37.10;;;;;;5093530;28;20451;-72
2022/04/18 01:50:56;;;;;;;2.73;2.53;;;14.00;38.00;;;;;;5093273;28;20491;-72
2022/04/18 01:53:25;;;;;;;2.43;2.23;;;14.00;38.20;;;;;;5093248;28;20448;-72
2022/04/18 01:55:52;;;;;;;3.10;2.40;;;13.90;37.90;;;;;;5093328;28;20483;-72
2022/04/18 01:58:19;;;;;;;4.90;3.13;;;14.00;38.00;;;;;;5093277;28;20451;-72
2022/04/18 02:00:46;;;;;;;2.63;2.43;;;13.90;38.10;;;;;;5092797;28;20958;-72
2022/04/18 02:03:13;;;;;;;2.30;2.10;;;13.90;37.70;;;;;;5093247;28;20443;-72
2022/04/18 02:05:42;;;;;;;2.73;2.50;;;13.80;37.90;;;;;;5093196;28;20455;-72
2022/04/18 02:08:09;;;;;;;6.20;2.80;;;13.80;37.80;;;;;;5093170;28;20455;-72
2022/04/18 02:10:38;;;;;;;2.83;2.63;;;13.80;37.40;;;;;;5092780;28;20451;-72
2022/04/18 02:13:06;;;;;;;4.80;2.63;;;13.80;38.00;;;;;;5093318;28;20793;-72
2022/04/18 02:15:33;;;;;;;2.50;2.27;;;13.70;38.20;;;;;;5093731;28;20455;-72
2022/04/18 02:18:00;;;;;;;3.93;2.70;;;13.70;37.80;;;;;;5094483;28;20458;-71
2022/04/18 02:20:27;;;;;;;2.87;2.53;;;13.70;38.50;;;;;;5096819;28;20452;-72
2022/04/18 02:22:56;;;;;;;3.03;2.77;;;13.70;38.50;;;;;;5096730;28;20482;-72
2022/04/18 02:25:23;;;;;;;3.70;3.00;;;13.60;39.10;;;;;;5096519;28;20570;-72
2022/04/18 02:27:52;;;;;;;7.90;3.60;;;13.60;39.50;;;;;;5096263;28;20865;-72
2022/04/18 02:30:19;;;;;;;5.70;3.30;;;13.50;39.50;;;;;;5096365;28;20954;-72
2022/04/18 02:32:49;;;;;;;3.40;3.07;;;13.50;40.10;;;;;;5096172;28;20467;-71
2022/04/18 02:35:17;;;;;;;3.30;3.00;;;13.40;39.80;;;;;;5096528;28;20459;-71
2022/04/18 02:37:43;;;;;;;5.00;3.17;;;13.40;40.30;;;;;;5096290;28;20958;-71
2022/04/18 02:40:11;;;;;;;3.83;3.10;;;13.30;40.30;;;;;;5096539;28;20450;-71
2022/04/18 02:42:38;;;;;;;5.13;3.70;;;13.30;40.10;;;;;;5096426;28;20459;-71
2022/04/18 02:45:08;;;;;;;6.67;3.77;;;13.30;39.60;;;;;;5096398;28;20536;-71
2022/04/18 02:47:34;;;;;;;4.37;3.50;;;13.20;39.50;;;;;;5096295;28;20455;-71
2022/04/18 02:50:01;;;;;;;5.10;3.97;;;13.20;40.00;;;;;;5096275;28;20454;-71
2022/04/18 02:52:28;;;;;;;5.20;3.43;;;13.20;39.50;;;;;;5096223;28;20472;-71
2022/04/18 02:54:55;;;;;;;4.63;4.17;;;13.20;39.80;;;;;;5096788;28;20444;-71
2022/04/18 02:57:21;;;;;;;5.40;3.83;;;13.20;39.40;;;;;;5096166;28;20452;-71
2022/04/18 02:59:48;;;;;;;5.10;3.50;;;13.20;39.30;;;;;;5096132;28;20459;-71
2022/04/18 03:02:16;;;;;;;5.47;3.77;;;13.10;39.80;;;;;;5096078;28;20464;-71
2022/04/18 03:04:43;;;;;;;4.20;3.20;;;13.10;39.70;;;;;;5096117;28;20853;-71
2022/04/18 03:07:10;;;;;;;4.10;3.70;;;13.00;39.80;;;;;;5095724;28;20447;-71
2022/04/18 03:09:37;;;;;;;6.10;4.03;;;13.00;39.80;;;;;;5095707;28;20451;-72
2022/04/18 03:12:06;;;;;;;3.50;3.20;;;13.00;39.50;;;;;;5095567;28;21025;-71
2022/04/18 03:14:33;;;;;;;4.40;3.63;;;13.00;39.30;;;;;;5095590;28;20439;-71
2022/04/18 03:17:00;;;;;;;3.70;2.80;;;13.00;39.40;;;;;;5095727;28;20440;-71
2022/04/18 03:19:28;;;;;;;5.20;3.10;;;12.90;39.30;;;;;;5095712;28;20452;-71
2022/04/18 03:21:55;;;;;;;3.43;2.57;;;12.90;39.30;;;;;;5095553;28;20460;-71
2022/04/18 03:24:22;;;;;;;4.50;2.70;;;12.90;39.30;;;;;;5095025;28;20997;-71
2022/04/18 03:26:49;;;;;;;4.50;2.90;;;12.90;39.10;;;;;;5095007;28;20451;-71
2022/04/18 03:29:15;;;;;;;3.17;2.43;;;12.80;39.10;;;;;;5096353;28;20456;-71
2022/04/18 03:31:42;;;;;;;2.50;2.30;;;12.80;39.40;;;;;;5095301;28;20468;-71
2022/04/18 03:34:09;;;;;;;3.10;2.77;;;12.80;39.60;;;;;;5095055;28;20818;-71
2022/04/18 03:42:09;;;;;;;3.20;2.90;;;12.70;39.90;;;;;;5095212;28;20447;-71
2022/04/18 03:44:39;;;;;;;7.23;3.00;;;12.60;40.00;;;;;;5095154;28;20495;-71
2022/04/18 03:47:06;;;;;;;3.57;2.33;;;12.60;40.30;;;;;;5095183;28;20432;-71
2022/04/18 03:49:33;;;;;;;5.50;2.80;;;12.60;40.30;;;;;;5095055;28;20444;-71
2022/04/18 03:52:01;;;;;;;3.23;2.70;;;12.50;40.60;;;;;;5095096;28;20468;-71
2022/04/18 03:54:28;;;;;;;3.77;2.93;;;12.50;40.70;;;;;;5094926;28;20443;-71
2022/04/18 03:56:55;;;;;;;3.03;2.57;;;12.50;40.60;;;;;;5094911;28;20459;-71
2022/04/18 03:59:22;;;;;;;3.13;2.90;;;12.40;40.50;;;;;;5094664;28;20943;-71
2022/04/18 04:01:48;;;;;;;4.20;3.10;;;12.40;40.80;;;;;;5094913;28;20480;-71
2022/04/18 04:04:15;;;;;;;4.23;3.23;;;12.30;41.20;;;;;;5094298;28;20855;-71
2022/04/18 04:06:42;;;;;;;3.27;2.97;;;12.30;41.50;;;;;;5094962;28;20455;-71
2022/04/18 04:09:10;;;;;;;3.10;2.90;;;12.30;41.80;;;;;;5094565;28;20455;-71
2022/04/18 04:11:37;;;;;;;5.13;2.80;;;12.20;42.00;;;;;;5094738;28;20459;-71
2022/04/18 04:14:04;;;;;;;4.20;3.23;;;12.20;42.00;;;;;;5094609;28;20436;-71
2022/04/18 04:16:31;;;;;;;3.83;3.13;;;12.10;41.90;;;;;;5094180;28;20439;-71
2022/04/18 04:18:58;;;;;;;2.70;2.47;;;12.10;42.10;;;;;;5094240;28;20822;-71
2022/04/18 04:21:25;;;;;;;2.90;2.60;;;12.10;41.90;;;;;;5094453;28;20472;-71
2022/04/18 04:23:52;;;;;;;2.73;2.40;;;12.10;42.00;;;;;;5094522;28;20517;-71
2022/04/18 04:26:20;;;;;;;3.40;3.10;;;12.00;42.30;;;;;;5094030;28;20946;-71
2022/04/18 04:28:47;;;;;;;3.37;2.83;;;11.90;42.50;;;;;;5094110;28;20456;-71
2022/04/18 04:31:14;;;;;;;2.90;2.70;;;11.80;42.90;;;;;;5094136;28;20471;-71
2022/04/18 04:33:41;;;;;;;3.00;2.60;;;11.70;43.30;;;;;;5094094;28;20450;-71
2022/04/18 04:36:07;;;;;;;2.67;2.47;;;11.60;43.80;;;;;;5094210;28;20440;-71
2022/04/18 04:38:34;;;;;;;3.83;2.83;;;11.50;44.40;;;;;;5094036;28;20479;-71
2022/04/18 04:41:02;;;;;;;5.70;3.30;;;11.40;44.50;;;;;;5093702;28;20467;-71
2022/04/18 04:43:30;;;;;;;3.60;2.90;;;11.30;45.10;;;;;;5093684;28;20466;-71
2022/04/18 04:45:57;;;;;;;3.17;2.87;;;11.30;44.90;;;;;;5093820;28;20483;-71
2022/04/18 04:48:25;;;;;;;8.60;2.70;;;11.20;45.10;;;;;;5093484;28;20447;-71
2022/04/18 04:50:52;;;;;;;3.30;2.70;;;11.20;45.40;;;;;;5093798;28;20472;-71
2022/04/18 04:53:18;;;;;;;4.20;2.70;;;11.20;45.70;;;;;;5093924;28;20448;-71
2022/04/18 04:55:46;;;;;;;3.23;2.93;;;11.10;46.10;;;;;;5093576;28;20455;-71
2022/04/18 04:58:13;;;;;;;2.80;2.60;;;11.10;46.70;;;;;;5093683;28;20456;-71
2022/04/18 05:00:42;;;;;;;3.00;2.70;;;11.10;46.10;;;;;;5093676;28;20473;-71
2022/04/18 05:03:10;;;;;;;3.63;2.77;;;11.10;46.10;;;;;;5093611;28;20479;-71
2022/04/18 05:05:36;;;;;;;3.53;3.00;;;11.10;45.90;;;;;;5094147;28;20486;-71
2022/04/18 05:08:03;;;;;;;4.40;2.77;;;11.10;46.00;;;;;;5093312;28;20450;-71
2022/04/18 05:10:30;;;;;;;3.03;2.73;;;11.10;46.30;;;;;;5093223;28;20508;-71
2022/04/18 05:12:57;;;;;;;4.17;3.07;;;11.20;46.50;;;;;;5093999;28;20452;-71
2022/04/18 05:15:24;;;;;;;5.20;2.80;;;11.10;46.40;;;;;;5093604;28;20444;-71
2022/04/18 05:17:52;;;;;;;5.80;4.23;;;11.10;46.30;;;;;;5093748;28;20444;-71
2022/04/18 05:20:19;;;;;;;3.03;2.73;;;11.10;46.80;;;;;;5093677;28;20463;-71
2022/04/18 05:22:46;;;;;;;3.60;3.30;;;11.10;46.10;;;;;;5093447;28;20463;-71
2022/04/18 05:25:13;;;;;;;7.50;3.37;;;11.10;46.70;;;;;;5093384;28;20479;-71
2022/04/18 05:27:40;;;;;;;2.60;2.30;;;11.10;45.80;;;;;;5093598;28;20452;-71
2022/04/18 05:30:08;;;;;;;4.23;2.90;;;11.20;45.70;;;;;;5093436;28;20451;-71
2022/04/18 05:32:35;;;;;;;2.90;2.20;;;11.20;46.00;;;;;;5093443;28;20479;-71
2022/04/18 05:35:03;;;;;;;3.77;2.50;;;11.30;46.40;;;;;;5093378;28;20439;-71
2022/04/18 05:37:30;;;;;;;7.67;2.70;;;11.30;45.70;;;;;;5093644;28;20447;-71
2022/04/18 05:39:57;;;;;;;4.20;2.63;;;11.40;45.80;;;;;;5093333;28;20454;-71
2022/04/18 05:42:24;;;;;;;4.27;3.03;;;11.40;46.20;;;;;;5093366;28;20467;-71
2022/04/18 05:44:51;;;;;;;3.97;2.40;;;11.50;46.10;;;;;;5092915;28;20507;-71
2022/04/18 05:47:17;;;;;;;3.77;2.80;;;11.40;46.60;;;;;;5093137;28;20444;-71
2022/04/18 05:49:44;;;;;;;3.50;2.87;;;11.50;46.30;;;;;;5093220;28;20448;-71
2022/04/18 05:52:14;;;;;;;2.80;2.50;;;11.50;46.20;;;;;;5093283;28;20501;-71
2022/04/18 05:54:41;;;;;;;3.93;2.20;;;11.60;46.10;;;;;;5097231;28;20513;-71
2022/04/18 05:57:07;;;;;;;2.93;2.40;;;11.60;46.10;;;;;;5097218;28;20455;-71
2022/04/18 05:59:34;;;;;;;2.53;2.27;;;11.70;46.30;;;;;;5096909;28;20943;-71
2022/04/18 06:02:01;;;;;;;4.43;2.57;;;11.80;46.20;;;;;;5096831;28;20470;-71
2022/04/18 06:04:28;;;;;;;5.23;2.50;;;11.90;45.50;;;;;;5096686;28;20990;-71
2022/04/18 06:06:55;;;;;;;2.43;1.80;;;11.90;45.40;;;;;;5096935;28;20840;-71
2022/04/18 06:09:23;;;;;;;3.70;2.60;;;12.00;45.40;;;;;;5096881;28;20497;-71
2022/04/18 06:11:52;;;;;;;5.97;2.90;;;12.00;45.30;;;;;;5096603;28;20475;-71
2022/04/18 06:14:19;;;;;;;6.93;2.93;;;12.10;45.30;;;;;;5096904;28;20452;-71
2022/04/18 06:16:45;;;;;;;2.70;2.50;;;12.10;45.50;;;;;;5096840;28;20444;-71
2022/04/18 06:19:13;;;;;;;2.80;2.53;;;12.20;45.30;;;;;;5096735;28;20531;-71
2022/04/18 06:21:40;;;;;;;3.03;2.53;;;12.30;45.00;;;;;;5096708;28;20467;-71
2022/04/18 06:24:06;;;;;;;2.93;2.57;;;12.30;44.80;;;;;;5096954;28;20451;-71
2022/04/18 06:26:35;;;;;;;3.43;2.70;;;12.40;44.70;;;;;;5096842;28;20487;-71
2022/04/18 06:29:02;;;;;;;3.17;2.87;;;12.50;44.50;;;;;;5096467;28;20440;-71
2022/04/18 06:31:28;;;;;;;3.30;2.60;;;12.60;44.00;;;;;;5096460;28;20478;-71
2022/04/18 06:33:55;;;;;;;2.90;2.60;;;12.70;43.70;;;;;;5096725;28;20451;-71
2022/04/18 06:36:22;;;;;;;3.37;2.47;;;12.80;43.40;;;;;;5096309;28;20444;-71
2022/04/18 06:38:49;;;;;;;6.63;2.67;;;12.80;43.10;;;;;;5096450;28;20443;-71
2022/04/18 06:41:16;;;;;;;2.90;2.53;;;12.90;42.90;;;;;;5096374;28;20490;-71
2022/04/18 06:43:44;;;;;;;2.40;2.20;;;13.00;42.90;;;;;;5096108;28;20456;-71
2022/04/18 06:46:10;;;;;;;2.50;2.30;;;13.10;42.90;;;;;;5096287;28;20494;-71
2022/04/18 06:48:37;;;;;;;5.00;2.37;;;13.20;42.70;;;;;;5095737;28;20815;-71
2022/04/18 06:51:04;;;;;;;3.93;2.90;;;13.30;42.40;;;;;;5096085;28;20463;-71
2022/04/18 06:53:31;;;;;;;4.20;3.33;;;13.40;42.10;;;;;;5096342;28;20452;-71
2022/04/18 06:58:41;;;;;;;4.80;3.27;;;13.60;41.50;;;;;;5095741;28;20411;-71
2022/04/18 07:01:10;;;;;;;3.30;2.73;;;13.80;42.10;;;;;;5095784;28;20464;-71
2022/04/18 07:03:36;;;;;;;3.83;3.00;;;13.80;42.20;;;;;;5096098;28;20476;-71
2022/04/18 07:06:03;;;;;;;3.10;2.73;;;14.00;42.40;;;;;;5096332;28;20483;-71
2022/04/18 07:08:30;;;;;;;3.20;2.57;;;14.10;41.80;;;;;;5095315;28;20458;-71
2022/04/18 07:10:57;;;;;;;2.60;2.40;;;14.20;41.40;;;;;;5095227;28;20479;-71
2022/04/18 07:13:24;;;;;;;2.67;2.47;;;14.30;41.10;;;;;;5095425;28;20810;-71
2022/04/18 07:15:50;;;;;;;2.87;2.57;;;14.50;41.20;;;;;;5095740;28;20542;-71
2022/04/18 07:18:18;;;;;;;2.60;2.40;;;14.60;39.60;;;;;;5095611;28;20449;-71
2022/04/18 07:20:45;;;;;;;2.20;2.07;;;14.70;39.70;;;;;;5095495;28;20455;-71
2022/04/18 07:23:12;;;;;;;3.90;2.63;;;14.70;39.50;;;;;;5095555;28;20812;-71
2022/04/18 07:25:39;;;;;;;3.23;2.50;;;14.90;39.90;;;;;;5095023;28;20471;-71
2022/04/18 07:28:07;;;;;;;3.20;2.90;;;15.00;39.80;;;;;;5095196;28;20451;-71
2022/04/18 07:30:33;;;;;;;2.57;2.13;;;15.10;38.70;;;;;;5095264;28;20452;-71
2022/04/18 07:33:00;;;;;;;3.30;2.73;;;15.20;38.30;;;;;;5095514;28;20452;-71
2022/04/18 07:35:28;;;;;;;2.20;1.80;;;15.40;38.50;;;;;;5095261;28;20451;-71
2022/04/18 07:40:47;;;;;;;3.73;2.30;;;15.70;39.00;;;;;;5070380;28;20481;-71
2022/04/18 07:43:14;;;;;;;2.70;2.30;;;15.90;39.30;;;;;;5095010;28;20439;-71
2022/04/18 07:45:41;;;;;;;2.47;2.27;;;16.10;38.90;;;;;;5094632;28;21026;-71
2022/04/18 07:48:08;;;;;;;3.50;2.30;;;16.30;38.20;;;;;;5094986;28;20444;-71
2022/04/18 07:53:22;;;;;;;2.87;2.57;;;16.60;37.60;;;;;;5094825;28;20419;-71
2022/04/18 07:55:49;;;;;;;4.03;2.40;;;16.80;37.30;;;;;;5094823;28;20460;-71
2022/04/18 07:58:16;;;;;;;5.97;2.20;;;17.00;37.30;;;;;;5094897;28;20452;-71
2022/04/18 08:00:43;;;;;;;4.03;2.30;;;17.20;37.10;;;;;;5094610;28;20452;-71
2022/04/18 08:03:09;;;;;;;3.70;3.40;;;17.40;36.60;;;;;;5094555;28;20935;-71
2022/04/18 08:05:38;;;;;;;2.57;2.37;;;17.50;34.70;;;;;;5094656;28;20483;-71
2022/04/18 08:08:05;;;;;;;2.70;2.50;;;17.60;34.50;;;;;;5094392;28;20447;-71
2022/04/18 08:10:36;;;;;;;3.73;2.33;;;17.70;34.80;;;;;;5094475;28;20456;-72
2022/04/18 08:13:03;;;;;;;3.30;3.00;;;17.90;35.00;;;;;;5094638;28;20432;-71
2022/04/18 08:15:30;;;;;;;2.43;2.20;;;18.00;33.80;;;;;;5093796;28;20866;-71
2022/04/18 08:17:57;;;;;;;3.23;2.50;;;18.10;34.50;;;;;;5094640;28;20455;-71
2022/04/18 08:20:24;;;;;;;4.73;3.17;;;18.30;35.30;;;;;;5094374;28;20454;-71
2022/04/18 08:22:52;;;;;;;5.30;2.53;;;18.50;34.60;;;;;;5094517;28;20467;-71
2022/04/18 08:25:18;;;;;;;3.50;2.63;;;18.70;34.20;;;;;;5094418;28;20448;-71
2022/04/18 08:27:45;;;;;;;3.67;3.30;;;18.90;34.00;;;;;;5094055;28;20947;-71
2022/04/18 08:30:12;;;;;;;4.43;3.33;;;19.10;33.60;;;;;;5094238;28;20456;-71
2022/04/18 08:32:40;;;;;;;14.47;3.07;;;19.30;33.10;;;;;;5094136;28;20510;-71
2022/04/18 08:35:07;;;;;;;2.83;2.47;;;19.50;31.60;;;;;;5094107;28;20448;-71
2022/04/18 08:37:36;;;;;;;3.00;2.73;;;19.50;29.80;;;;;;5094238;28;20452;-71
2022/04/18 08:40:06;;;;;;;3.20;2.70;;;19.60;29.80;;;;;;5094155;28;20535;-71
2022/04/18 08:42:36;;;;;;;4.93;2.43;;;19.60;29.60;;;;;;5094131;28;20481;-71
2022/04/18 08:45:05;;;;;;;2.93;2.63;;;19.70;30.50;;;;;;5094153;28;20451;-71
2022/04/18 08:53:09;;;;;;;2.60;2.40;;;20.40;31.50;;;;;;5054996;28;20421;-71
2022/04/18 08:55:37;;;;;;;2.70;2.27;;;20.70;31.20;;;;;;5093868;28;20428;-71
2022/04/18 08:58:05;;;;;;;2.77;2.57;;;20.90;30.70;;;;;;5093908;28;20814;-71
2022/04/18 09:00:32;;;;;;;2.70;2.50;;;21.20;30.50;;;;;;5093767;28;20448;-71
2022/04/18 09:02:59;;;;;;;3.00;2.80;;;21.50;30.50;;;;;;5093903;28;20613;-71
2022/04/18 09:05:26;;;;;;;2.67;2.40;;;21.70;29.90;;;;;;5093655;28;20447;-71
2022/04/18 09:08:01;;;;;;;4.50;3.10;;;22.00;30.00;;;;;;5093620;28;20451;-71
2022/04/18 09:10:28;;;;;;;3.40;2.60;;;22.20;29.80;;;;;;5093396;28;20458;-71
2022/04/18 09:13:03;;;;;;;3.40;2.77;;;22.40;29.30;;;;;;5093617;28;20829;-71
2022/04/18 09:15:34;;;;;;;3.97;2.87;;;22.70;29.40;;;;;;5094063;28;20435;-71
2022/04/18 09:18:15;;;;;;;3.10;2.80;;;22.90;28.10;;;;;;5093670;28;20424;-71
2022/04/18 09:20:46;;;;;;;4.57;2.97;;;23.10;28.10;;;;;;5093271;28;20942;-71
2022/04/18 09:23:22;;;;;;;2.97;2.73;;;23.30;28.40;;;;;;5093554;28;20427;-71
2022/04/18 09:25:57;;;;;;;3.63;2.80;;;23.50;28.30;;;;;;5093139;28;20479;-71
2022/04/18 09:28:28;;;;;;;2.67;2.47;;;23.70;28.50;;;;;;5097470;28;20800;-71
2022/04/18 09:31:04;;;;;;;5.07;3.07;;;23.80;28.30;;;;;;5097462;28;21028;-71
2022/04/18 09:33:33;;;;;;;2.60;2.40;;;24.00;27.70;;;;;;5097514;28;20454;-71
2022/04/18 09:36:11;;;;;;;5.30;3.30;;;24.20;26.20;;;;;;5097986;28;20523;-71
2022/04/18 09:38:41;;;;;;;4.50;3.83;;;24.30;27.20;;;;;;5097996;28;20463;-71
2022/04/18 09:41:08;;;;;;;2.73;2.53;;;24.50;26.70;;;;;;5097532;28;20470;-71
2022/04/18 09:43:42;;;;;;;2.80;2.60;;;24.60;26.10;;;;;;5097508;28;20483;-71
2022/04/18 09:46:10;;;;;;;3.27;2.97;;;24.70;27.10;;;;;;5097394;28;20467;-71
2022/04/18 09:48:38;;;;;;;3.90;3.17;;;24.90;27.30;;;;;;5096985;28;20890;-71
2022/04/18 09:51:12;;;;;;;4.10;3.33;;;25.10;25.80;;;;;;5097283;28;20476;-71
2022/04/18 09:53:41;;;;;;;6.03;3.13;;;25.30;25.30;;;;;;5097474;28;20859;-71
2022/04/18 09:56:09;;;;;;;2.90;2.70;;;25.30;24.70;;;;;;5097287;28;20447;-71
2022/04/18 09:58:37;;;;;;;6.13;2.90;;;25.50;26.30;;;;;;5096977;28;20477;-71
2022/04/18 10:01:07;;;;;;;2.60;2.40;;;25.80;27.00;;;;;;5097137;28;20471;-71
2022/04/18 10:03:34;;;;;;;3.63;3.33;;;26.10;26.00;;;;;;5097018;28;20436;-71
2022/04/18 10:06:02;;;;;;;3.17;2.80;;;26.50;25.30;;;;;;5096890;28;20487;-71
2022/04/18 10:08:30;;;;;;;3.70;3.20;;;26.90;25.00;;;;;;5097217;28;20455;-71
2022/04/18 10:10:58;;;;;;;4.03;3.00;;;27.30;24.70;;;;;;5096620;28;20493;-71
2022/04/18 10:13:27;;;;;;;3.87;3.03;;;27.80;24.60;;;;;;5097216;28;20451;-71
2022/04/18 10:15:54;;;;;;;3.03;2.60;;;28.10;25.00;;;;;;5096897;28;20450;-71
2022/04/18 10:18:24;;;;;;;5.53;2.70;;;28.60;24.90;;;;;;5097012;28;20823;-71
2022/04/18 10:21:12;;;;;;;2.97;2.77;;;28.90;24.00;;;;;;5096769;28;20472;-71
2022/04/18 10:24:11;;;;;;;2.90;2.70;;;29.30;23.30;;;;;;5096567;28;20436;-71
2022/04/18 10:27:03;;;;;;;2.77;2.57;;;29.80;22.70;;;;;;5096510;28;20467;-71
2022/04/18 10:29:33;;;;;;;3.17;2.87;;;30.30;22.40;;;;;;5096654;28;20428;-69
2022/04/18 10:32:03;;;;;;;4.27;2.60;;;30.70;21.20;;;;;;5096594;28;20499;-71
2022/04/18 10:34:34;;;;;;;3.20;2.57;;;31.10;21.50;;;;;;5096272;28;21029;-69
2022/04/18 10:37:03;;;;;;;4.03;2.80;;;31.60;21.00;;;;;;5096691;28;20466;-71
2022/04/18 10:39:34;;;;;;;3.13;2.87;;;32.10;20.20;;;;;;5095678;28;20826;-69
2022/04/18 10:42:20;;;;;;;3.03;2.40;;;32.40;19.20;;;;;;5096698;28;20463;-70
2022/04/18 10:44:59;;;;;;;2.40;2.20;;;32.90;18.70;;;;;;5096364;28;20493;-70
2022/04/18 10:47:27;;;;;;;2.70;2.30;;;33.40;17.60;;;;;;5096233;28;20916;-69
2022/04/18 10:50:18;;;;;;;2.67;2.47;;;33.90;17.10;;;;;;5096324;28;20449;-69
2022/04/18 10:53:09;;;;;;;2.90;2.70;;;34.50;16.90;;;;;;5095933;28;20516;-69
2022/04/18 10:55:37;;;;;;;2.40;2.20;;;35.10;16.30;;;;;;5095940;28;20450;-70
2022/04/18 10:58:12;;;;;;;2.53;2.10;;;35.60;15.40;;;;;;5095970;28;20451;-70
2022/04/18 11:00:49;;;;;;;4.03;2.40;;;36.00;15.10;;;;;;5095705;28;20455;-70
2022/04/18 11:03:40;;;;;;;3.20;2.50;;;36.50;14.70;;;;;;5095807;28;20443;-70
2022/04/18 11:06:10;;;;;;;2.47;2.27;;;36.90;14.50;;;;;;5095738;28;20427;-70
2022/04/18 11:08:38;;;;;;;2.53;2.30;;;37.20;14.40;;;;;;5095362;28;20663;-70
2022/04/18 11:11:06;;;;;;;3.63;2.65;;;37.40;14.00;;;;;;5095224;28;20746;-70
2022/04/18 11:13:33;;;;;;;3.10;2.70;;;37.70;14.20;;;;;;5095723;28;20307;-70
2022/04/18 11:16:39;;;;;;;10.80;2.50;;;38.00;14.10;;;;;;5095919;28;20233;-70
2022/04/18 11:19:07;;;;;;;2.38;2.20;;;38.40;14.30;;;;;;5095251;28;20676;-70
2022/04/18 11:22:11;;;;;;;2.90;2.15;;;38.80;13.30;;;;;;5095489;28;20271;-70
2022/04/18 11:24:41;;;;;;;2.50;2.22;;;39.20;13.30;;;;;;5095482;28;20197;-70
2022/04/18 11:27:10;;;;;;;2.75;2.55;;;39.50;12.70;;;;;;5095814;28;20223;-70
2022/04/18 11:29:38;;;;;;;2.30;2.10;;;39.70;12.80;;;;;;5095300;28;20296;-70
2022/04/18 11:32:07;;;;;;;2.17;1.98;;;39.90;12.30;;;;;;5095139;28;20224;-70
2022/04/18 11:34:34;;;;;;;4.18;2.28;;;40.10;12.40;;;;;;5095290;28;20205;-70
2022/04/18 11:37:04;;;;;;;5.00;2.33;;;40.30;11.40;;;;;;5095097;28;20204;-71
2022/04/18 11:39:46;;;;;;;2.30;2.10;;;40.40;11.50;;;;;;5095158;28;20553;-71
2022/04/18 11:42:17;;;;;;;2.47;2.28;;;40.50;11.80;;;;;;5095025;28;20225;-70
2022/04/18 11:44:45;;;;;;;2.17;1.98;;;40.50;10.00;;;;;;5095076;28;20189;-70
2022/04/18 11:47:15;;;;;;;2.85;2.15;;;40.50;10.70;;;;;;5094953;28;20224;-70
2022/04/18 11:49:44;;;;;;;2.92;2.25;;;40.50;12.00;;;;;;5094393;28;20204;-70
2022/04/18 11:52:18;;;;;;;2.63;2.42;;;40.70;11.60;;;;;;5094432;28;20221;-70
2022/04/18 11:55:14;;;;;;;2.20;2.00;;;40.90;12.00;;;;;;5094636;28;20539;-70
2022/04/18 11:57:43;;;;;;;5.47;2.55;;;41.30;11.80;;;;;;5094501;28;20697;-70
2022/04/18 12:00:12;;;;;;;1.95;1.77;;;41.60;11.50;;;;;;5094269;28;20663;-70
2022/04/18 12:08:13;;;;;;;2.47;2.28;;;42.20;10.80;;;;;;5094300;28;20696;-71
2022/04/18 12:10:42;;;;;;;1.73;1.63;;;42.40;10.80;;;;;;5094110;28;20584;-71
2022/04/18 12:13:11;;;;;;;1.63;1.52;;;42.70;10.90;;;;;;5094439;28;20258;-71
2022/04/18 12:15:38;;;;;;;2.78;1.90;;;43.00;9.70;;;;;;5094494;28;20205;-71
2022/04/18 12:18:10;;;;;;;2.20;2.00;;;43.30;10.40;;;;;;5094480;28;20287;-71
2022/04/18 12:20:42;;;;;;;2.13;1.95;;;43.60;9.90;;;;;;5094452;28;20291;-71
2022/04/18 12:23:10;;;;;;;2.08;1.60;;;44.00;9.80;;;;;;5094978;28;20193;-71
2022/04/18 12:25:37;;;;;;;2.10;1.90;;;44.30;9.70;;;;;;5094319;28;20599;-71
2022/04/18 12:28:06;;;;;;;2.42;2.22;;;44.50;9.50;;;;;;5094362;28;20231;-71
2022/04/18 12:30:33;;;;;;;2.97;1.90;;;44.60;8.10;;;;;;5093949;28;20201;-71
2022/04/18 12:33:11;;;;;;;2.03;1.80;;;44.60;8.60;;;;;;5094028;28;20207;-71
2022/04/18 12:35:39;;;;;;;2.03;1.83;;;44.80;9.60;;;;;;5094149;28;20189;-71
2022/04/18 12:38:07;;;;;;;2.15;1.95;;;45.00;9.60;;;;;;5093901;28;20197;-71
2022/04/18 12:40:36;;;;;;;2.33;2.13;;;45.20;9.60;;;;;;5093950;28;20209;-71
2022/04/18 12:43:09;;;;;;;2.00;1.90;;;45.40;9.00;;;;;;5093980;28;20201;-71
2022/04/18 12:45:48;;;;;;;2.03;1.90;;;45.50;9.40;;;;;;5093953;28;20181;-71
2022/04/18 12:48:19;;;;;;;1.80;1.70;;;45.60;8.00;;;;;;5093569;28;20258;-71
2022/04/18 12:50:46;;;;;;;2.17;1.98;;;45.60;8.50;;;;;;5093983;28;20185;-71
2022/04/18 12:53:13;;;;;;;2.20;1.90;;;45.80;9.00;;;;;;5094791;28;20605;-71
2022/04/18 12:55:39;;;;;;;2.13;1.70;;;45.90;9.20;;;;;;5093780;28;20200;-71
2022/04/18 12:58:18;;;;;;;1.80;1.63;;;46.10;9.00;;;;;;5093802;28;20201;-71
2022/04/18 13:00:47;;;;;;;2.25;1.98;;;46.20;9.00;;;;;;5093795;28;20189;-71
2022/04/18 13:03:15;;;;;;;2.38;1.90;;;46.20;8.70;;;;;;5093329;28;20205;-71
2022/04/18 13:05:44;;;;;;;3.63;2.78;;;46.10;8.30;;;;;;5093258;28;20201;-71
2022/04/18 13:08:12;;;;;;;2.17;1.98;;;46.20;8.70;;;;;;5093574;28;20228;-70
2022/04/18 13:10:39;;;;;;;2.22;2.03;;;46.30;7.60;;;;;;5093096;28;20212;-71
2022/04/18 13:13:07;;;;;;;1.60;1.50;;;46.30;8.10;;;;;;5092264;28;20193;-71
2022/04/18 13:15:35;;;;;;;1.80;1.70;;;46.40;7.70;;;;;;5093543;28;20205;-71
2022/04/18 13:18:06;;;;;;;2.75;2.03;;;46.50;8.20;;;;;;5093541;28;20698;-71
2022/04/18 13:20:34;;;;;;;2.08;1.88;;;46.70;8.20;;;;;;5093253;28;20661;-71
2022/04/18 13:23:01;;;;;;;2.13;2.03;;;46.80;8.10;;;;;;5093482;28;20258;-71
2022/04/18 13:25:28;;;;;;;2.17;1.92;;;46.90;8.30;;;;;;5093064;28;20261;-71
2022/04/18 13:27:55;;;;;;;1.67;1.58;;;47.00;8.30;;;;;;5093130;28;20700;-71